sensor_id;sensor_type;location;lat;lon;timestamp;pressure;altitude;pressure_sealevel;temperature;humidity
27712;BME280;2377;51.734;8.950;2024-02-26T00:00:07;96317.41;;;4.71;83.77
27712;BME280;2377;51.734;8.950;2024-02-26T00:02:37;96321.91;;;4.69;83.78
27712;BME280;2377;51.734;8.950;2024-02-26T00:05:07;96319.56;;;4.68;83.80
27712;BME280;2377;51.734;8.950;2024-02-26T00:07:34;96318.81;;;4.67;84.01
27712;BME280;2377;51.734;8.950;2024-02-26T00:10:07;96321.13;;;4.69;83.83
27712;BME280;2377;51.734;8.950;2024-02-26T00:12:34;96313.75;;;4.67;84.12
27712;BME280;2377;51.734;8.950;2024-02-26T00:15:03;96314.38;;;4.62;84.01
27712;BME280;2377;51.734;8.950;2024-02-26T00:17:30;96312.03;;;4.61;83.70
27712;BME280;2377;51.734;8.950;2024-02-26T00:19:57;96323.28;;;4.65;nan
27712;BME280;2377;51.734;8.950;2024-02-26T00:22:26;96319.00;;;4.65;84.25
27712;BME280;2377;51.734;8.950;2024-02-26T00:24:53;96317.25;;;4.66;84.15
27712;BME280;2377;51.734;8.950;2024-02-26T00:27:20;96315.31;;;4.68;83.63
27712;BME280;2377;51.734;8.950;2024-02-26T00:29:47;96309.81;;;4.71;83.51
27712;BME280;2377;51.734;8.950;2024-02-26T00:32:16;96304.38;;;4.68;84.05
27712;BME280;2377;51.734;8.950;2024-02-26T00:34:44;96304.38;;;4.68;83.75
27712;BME280;2377;51.734;8.950;2024-02-26T00:37:11;96302.84;;;4.66;83.82
27712;BME280;2377;51.734;8.950;2024-02-26T00:39:38;96308.25;;;4.70;83.94
27712;BME280;2377;51.734;8.950;2024-02-26T00:42:06;96317.41;;;4.71;83.49
27712;BME280;2377;51.734;8.950;2024-02-26T00:44:33;96305.72;;;4.70;83.55
27712;BME280;2377;51.734;8.950;2024-02-26T00:47:02;96302.97;;;4.72;83.61
27712;BME280;2377;51.734;8.950;2024-02-26T00:49:31;96297.72;;;4.73;83.19
27712;BME280;2377;51.734;8.950;2024-02-26T00:51:58;96295.19;;;4.73;83.79
27712;BME280;2377;51.734;8.950;2024-02-26T00:54:26;96298.91;;;4.71;83.06
27712;BME280;2377;51.734;8.950;2024-02-26T00:56:53;96298.13;;;4.70;83.14
27712;BME280;2377;51.734;8.950;2024-02-26T00:59:20;96292.72;;;4.66;83.67
27712;BME280;2377;51.734;8.950;2024-02-26T01:01:47;96290.00;;;4.68;83.75
27712;BME280;2377;51.734;8.950;2024-02-26T01:04:14;96288.78;;;4.71;83.20
27712;BME280;2377;51.734;8.950;2024-02-26T01:06:44;96284.94;;;4.68;83.37
27712;BME280;2377;51.734;8.950;2024-02-26T01:09:12;96284.50;;;4.71;83.60
27712;BME280;2377;51.734;8.950;2024-02-26T01:11:39;96281.97;;;4.71;83.50
27712;BME280;2377;51.734;8.950;2024-02-26T01:14:06;96288.00;;;4.70;83.44
27712;BME280;2377;51.734;8.950;2024-02-26T01:16:33;96279.00;;;4.74;82.99
27712;BME280;2377;51.734;8.950;2024-02-26T01:19:02;96280.78;;;4.74;83.09
27712;BME280;2377;51.734;8.950;2024-02-26T01:21:30;96278.81;;;4.76;83.53
27712;BME280;2377;51.734;8.950;2024-02-26T01:23:58;96280.13;;;4.78;82.96
27712;BME280;2377;51.734;8.950;2024-02-26T01:26:25;96274.63;;;4.81;83.15
27712;BME280;2377;51.734;8.950;2024-02-26T01:28:52;96272.66;;;4.83;82.93
27712;BME280;2377;51.734;8.950;2024-02-26T01:31:20;96273.66;;;4.82;82.70
27712;BME280;2377;51.734;8.950;2024-02-26T01:33:47;96267.97;;;4.87;82.71
27712;BME280;2377;51.734;8.950;2024-02-26T01:36:15;96267.72;;;4.88;82.27
27712;BME280;2377;51.734;8.950;2024-02-26T01:38:42;96268.72;;;4.87;82.38
27712;BME280;2377;51.734;8.950;2024-02-26T01:41:10;96280.75;;;4.92;82.55
27712;BME280;2377;51.734;8.950;2024-02-26T01:43:37;96272.50;;;4.97;82.50
27712;BME280;2377;51.734;8.950;2024-02-26T01:46:06;96266.44;;;4.98;82.41
27712;BME280;2377;51.734;8.950;2024-02-26T01:48:36;96274.81;;;4.98;82.41
27712;BME280;2377;51.734;8.950;2024-02-26T01:51:03;96271.06;;;5.01;82.27
27712;BME280;2377;51.734;8.950;2024-02-26T01:53:31;96274.72;;;5.05;81.81
27712;BME280;2377;51.734;8.950;2024-02-26T01:55:58;96267.13;;;5.05;81.64
27712;BME280;2377;51.734;8.950;2024-02-26T01:58:27;96277.25;;;5.05;81.76
27712;BME280;2377;51.734;8.950;2024-02-26T02:00:56;96266.16;;;5.06;81.77
27712;BME280;2377;51.734;8.950;2024-02-26T02:03:23;96271.22;;;5.06;81.91
27712;BME280;2377;51.734;8.950;2024-02-26T02:05:51;96274.72;;;5.05;81.95
27712;BME280;2377;51.734;8.950;2024-02-26T02:08:18;96272.75;;;5.07;81.73
27712;BME280;2377;51.734;8.950;2024-02-26T02:10:45;96274.97;;;5.03;81.81
27712;BME280;2377;51.734;8.950;2024-02-26T02:13:14;96274.16;;;5.03;81.10
27712;BME280;2377;51.734;8.950;2024-02-26T02:15:43;96278.66;;;5.01;81.39
27712;BME280;2377;51.734;8.950;2024-02-26T02:18:10;96277.13;;;5.00;82.03
27712;BME280;2377;51.734;8.950;2024-02-26T02:20:38;96281.19;;;5.01;81.38
27712;BME280;2377;51.734;8.950;2024-02-26T02:23:06;96278.25;;;5.04;81.20
27712;BME280;2377;51.734;8.950;2024-02-26T02:25:37;96282.97;;;5.00;81.20
27712;BME280;2377;51.734;8.950;2024-02-26T02:28:05;96268.78;;;4.99;81.12
27712;BME280;2377;51.734;8.950;2024-02-26T02:30:34;96278.13;;;4.99;81.21
27712;BME280;2377;51.734;8.950;2024-02-26T02:33:01;96280.66;;;4.99;81.16
27712;BME280;2377;51.734;8.950;2024-02-26T02:35:28;96276.81;;;4.96;81.71
27712;BME280;2377;51.734;8.950;2024-02-26T02:38:00;96283.41;;;4.97;81.64
27712;BME280;2377;51.734;8.950;2024-02-26T02:40:27;96275.59;;;4.99;81.48
27712;BME280;2377;51.734;8.950;2024-02-26T02:42:54;96280.66;;;4.99;81.85
27712;BME280;2377;51.734;8.950;2024-02-26T02:45:21;96277.91;;;5.00;81.84
27712;BME280;2377;51.734;8.950;2024-02-26T02:47:48;96283.97;;;4.99;81.24
27712;BME280;2377;51.734;8.950;2024-02-26T02:50:16;96294.97;;;5.05;81.38
27712;BME280;2377;51.734;8.950;2024-02-26T02:52:43;96291.03;;;5.09;81.05
27712;BME280;2377;51.734;8.950;2024-02-26T02:55:12;96283.66;;;5.07;81.28
27712;BME280;2377;51.734;8.950;2024-02-26T02:57:40;96289.50;;;5.08;81.08
27712;BME280;2377;51.734;8.950;2024-02-26T03:00:11;96279.38;;;5.08;81.23
27712;BME280;2377;51.734;8.950;2024-02-26T03:02:38;96287.50;;;5.10;81.01
27712;BME280;2377;51.734;8.950;2024-02-26T03:05:09;96282.44;;;5.10;80.62
27712;BME280;2377;51.734;8.950;2024-02-26T03:07:36;96274.66;;;5.12;80.70
27712;BME280;2377;51.734;8.950;2024-02-26T03:10:04;96278.50;;;5.14;80.67
27712;BME280;2377;51.734;8.950;2024-02-26T03:12:33;96272.69;;;5.14;80.39
27712;BME280;2377;51.734;8.950;2024-02-26T03:15:01;96277.53;;;5.15;80.57
27712;BME280;2377;51.734;8.950;2024-02-26T03:17:30;96279.06;;;5.16;80.18
27712;BME280;2377;51.734;8.950;2024-02-26T03:19:57;96284.56;;;5.13;80.88
27712;BME280;2377;51.734;8.950;2024-02-26T03:22:25;96281.59;;;5.16;80.42
27712;BME280;2377;51.734;8.950;2024-02-26T03:24:52;96276.53;;;5.16;80.43
27712;BME280;2377;51.734;8.950;2024-02-26T03:27:19;96272.78;;;5.19;80.40
27712;BME280;2377;51.734;8.950;2024-02-26T03:29:48;96277.31;;;5.17;80.52
27712;BME280;2377;51.734;8.950;2024-02-26T03:32:15;96280.06;;;5.15;80.11
27712;BME280;2377;51.734;8.950;2024-02-26T03:34:45;96268.81;;;5.11;80.59
27712;BME280;2377;51.734;8.950;2024-02-26T03:37:12;96279.28;;;5.15;80.34
27712;BME280;2377;51.734;8.950;2024-02-26T03:39:39;96290.97;;;5.16;80.27
27712;BME280;2377;51.734;8.950;2024-02-26T03:42:06;96293.69;;;5.14;80.91
27712;BME280;2377;51.734;8.950;2024-02-26T03:44:33;96290.59;;;5.12;80.82
27712;BME280;2377;51.734;8.950;2024-02-26T03:47:02;96288.19;;;5.17;80.40
27712;BME280;2377;51.734;8.950;2024-02-26T03:49:29;96289.97;;;5.17;80.44
27712;BME280;2377;51.734;8.950;2024-02-26T03:51:57;96293.81;;;5.19;80.41
27712;BME280;2377;51.734;8.950;2024-02-26T03:54:24;96294.38;;;5.21;80.09
27712;BME280;2377;51.734;8.950;2024-02-26T03:56:52;96301.00;;;5.22;80.27
27712;BME280;2377;51.734;8.950;2024-02-26T03:59:19;96297.47;;;5.23;80.25
27712;BME280;2377;51.734;8.950;2024-02-26T04:01:47;96308.16;;;5.25;80.11
27712;BME280;2377;51.734;8.950;2024-02-26T04:04:16;96304.31;;;5.23;80.12
27712;BME280;2377;51.734;8.950;2024-02-26T04:06:44;96309.94;;;5.25;80.18
27712;BME280;2377;51.734;8.950;2024-02-26T04:09:13;96308.16;;;5.25;80.35
27712;BME280;2377;51.734;8.950;2024-02-26T04:11:41;96304.22;;;5.29;79.90
27712;BME280;2377;51.734;8.950;2024-02-26T04:14:09;96304.22;;;5.29;80.07
27712;BME280;2377;51.734;8.950;2024-02-26T04:16:38;96307.53;;;5.30;79.83
27712;BME280;2377;51.734;8.950;2024-02-26T04:19:05;96304.53;;;5.33;79.73
27712;BME280;2377;51.734;8.950;2024-02-26T04:21:34;96294.22;;;5.35;79.78
27712;BME280;2377;51.734;8.950;2024-02-26T04:24:01;96300.03;;;5.35;79.31
27712;BME280;2377;51.734;8.950;2024-02-26T04:26:30;96303.69;;;5.39;79.58
27712;BME280;2377;51.734;8.950;2024-02-26T04:28:57;96299.97;;;5.42;79.57
27712;BME280;2377;51.734;8.950;2024-02-26T04:31:24;96308.88;;;5.44;79.46
27712;BME280;2377;51.734;8.950;2024-02-26T04:33:51;96304.38;;;5.46;79.04
27712;BME280;2377;51.734;8.950;2024-02-26T04:36:19;96299.09;;;5.48;79.04
27712;BME280;2377;51.734;8.950;2024-02-26T04:38:48;96301.19;;;5.51;78.81
27712;BME280;2377;51.734;8.950;2024-02-26T04:41:18;96303.28;;;5.54;78.62
27712;BME280;2377;51.734;8.950;2024-02-26T04:43:46;96299.53;;;5.57;78.36
27712;BME280;2377;51.734;8.950;2024-02-26T04:46:14;96303.97;;;5.61;78.51
27712;BME280;2377;51.734;8.950;2024-02-26T04:48:41;96310.13;;;5.65;78.42
27712;BME280;2377;51.734;8.950;2024-02-26T04:51:08;96311.34;;;5.63;78.53
27712;BME280;2377;51.734;8.950;2024-02-26T04:53:35;96312.69;;;5.65;78.87
27712;BME280;2377;51.734;8.950;2024-02-26T04:56:05;96310.91;;;5.66;78.43
27712;BME280;2377;51.734;8.950;2024-02-26T04:58:34;96319.84;;;5.68;78.27
27712;BME280;2377;51.734;8.950;2024-02-26T05:01:03;96325.66;;;5.69;78.46
27712;BME280;2377;51.734;8.950;2024-02-26T05:03:30;96331.28;;;5.71;78.40
27712;BME280;2377;51.734;8.950;2024-02-26T05:06:01;96332.28;;;5.70;78.45
27712;BME280;2377;51.734;8.950;2024-02-26T05:08:29;96326.47;;;5.69;78.35
27712;BME280;2377;51.734;8.950;2024-02-26T05:10:56;96321.41;;;5.69;77.99
27712;BME280;2377;51.734;8.950;2024-02-26T05:13:25;96323.94;;;5.69;78.17
27712;BME280;2377;51.734;8.950;2024-02-26T05:15:52;96324.91;;;5.68;78.10
27712;BME280;2377;51.734;8.950;2024-02-26T05:18:22;96327.22;;;5.70;78.01
27712;BME280;2377;51.734;8.950;2024-02-26T05:20:50;96328.75;;;5.71;77.94
27712;BME280;2377;51.734;8.950;2024-02-26T05:23:17;96324.69;;;5.70;77.88
27712;BME280;2377;51.734;8.950;2024-02-26T05:25:44;96325.47;;;5.70;78.07
27712;BME280;2377;51.734;8.950;2024-02-26T05:28:13;96333.81;;;5.71;77.77
27712;BME280;2377;51.734;8.950;2024-02-26T05:30:42;96322.94;;;5.70;78.08
27712;BME280;2377;51.734;8.950;2024-02-26T05:33:11;96325.66;;;5.69;78.07
27712;BME280;2377;51.734;8.950;2024-02-26T05:35:38;96327.22;;;5.70;77.72
27712;BME280;2377;51.734;8.950;2024-02-26T05:38:06;96322.94;;;5.70;77.78
27712;BME280;2377;51.734;8.950;2024-02-26T05:40:33;96322.94;;;5.70;78.05
27712;BME280;2377;51.734;8.950;2024-02-26T05:43:05;96310.13;;;5.65;77.94
27712;BME280;2377;51.734;8.950;2024-02-26T05:45:33;96310.34;;;5.64;78.18
27712;BME280;2377;51.734;8.950;2024-02-26T05:48:05;96312.31;;;5.62;78.35
27712;BME280;2377;51.734;8.950;2024-02-26T05:50:33;96312.56;;;5.60;78.44
27712;BME280;2377;51.734;8.950;2024-02-26T05:53:01;96316.06;;;5.59;78.64
27712;BME280;2377;51.734;8.950;2024-02-26T05:55:28;96324.47;;;5.60;78.60
27712;BME280;2377;51.734;8.950;2024-02-26T05:57:55;96335.38;;;5.60;78.27
27712;BME280;2377;51.734;8.950;2024-02-26T06:00:24;96326.19;;;5.59;78.50
27712;BME280;2377;51.734;8.950;2024-02-26T06:02:51;96331.63;;;5.63;77.81
27712;BME280;2377;51.734;8.950;2024-02-26T06:05:21;96348.03;;;5.60;77.86
27712;BME280;2377;51.734;8.950;2024-02-26T06:07:49;96339.44;;;5.61;78.02
27712;BME280;2377;51.734;8.950;2024-02-26T06:10:16;96338.88;;;5.59;77.83
27712;BME280;2377;51.734;8.950;2024-02-26T06:12:46;96352.53;;;5.58;78.03
27712;BME280;2377;51.734;8.950;2024-02-26T06:15:15;96357.06;;;5.56;78.09
27712;BME280;2377;51.734;8.950;2024-02-26T06:17:42;96353.97;;;5.54;78.20
27712;BME280;2377;51.734;8.950;2024-02-26T06:20:11;96361.00;;;5.52;78.29
27712;BME280;2377;51.734;8.950;2024-02-26T06:22:41;96361.44;;;5.49;78.05
27712;BME280;2377;51.734;8.950;2024-02-26T06:25:09;96357.78;;;5.45;78.05
27712;BME280;2377;51.734;8.950;2024-02-26T06:27:36;96367.16;;;5.44;78.28
27712;BME280;2377;51.734;8.950;2024-02-26T06:30:08;96361.53;;;5.42;78.04
27712;BME280;2377;51.734;8.950;2024-02-26T06:32:38;96361.53;;;5.42;78.29
27712;BME280;2377;51.734;8.950;2024-02-26T06:35:06;96370.88;;;5.42;78.54
27712;BME280;2377;51.734;8.950;2024-02-26T06:37:36;96367.78;;;5.40;78.20
27712;BME280;2377;51.734;8.950;2024-02-26T06:40:07;96372.88;;;5.40;77.97
27712;BME280;2377;51.734;8.950;2024-02-26T06:42:37;96381.22;;;5.40;78.00
27712;BME280;2377;51.734;8.950;2024-02-26T06:45:05;96378.94;;;5.39;77.99
27712;BME280;2377;51.734;8.950;2024-02-26T06:47:33;96376.41;;;5.39;78.72
27712;BME280;2377;51.734;8.950;2024-02-26T06:50:00;96365.91;;;5.35;78.39
27712;BME280;2377;51.734;8.950;2024-02-26T06:52:27;96374.06;;;5.37;78.61
27712;BME280;2377;51.734;8.950;2024-02-26T06:54:55;96375.28;;;5.35;78.60
27712;BME280;2377;51.734;8.950;2024-02-26T06:57:24;96370.97;;;5.35;79.01
27712;BME280;2377;51.734;8.950;2024-02-26T06:59:51;96377.81;;;5.35;79.05
27712;BME280;2377;51.734;8.950;2024-02-26T07:02:18;96380.66;;;5.38;79.10
27712;BME280;2377;51.734;8.950;2024-02-26T07:04:45;96377.38;;;5.38;79.18
27712;BME280;2377;51.734;8.950;2024-02-26T07:07:15;96379.91;;;5.38;79.20
27712;BME280;2377;51.734;8.950;2024-02-26T07:09:44;96386.94;;;5.36;79.47
27712;BME280;2377;51.734;8.950;2024-02-26T07:12:12;96393.56;;;5.37;79.37
27712;BME280;2377;51.734;8.950;2024-02-26T07:14:41;96382.22;;;5.39;79.26
27712;BME280;2377;51.734;8.950;2024-02-26T07:17:09;96394.53;;;5.36;79.47
27712;BME280;2377;51.734;8.950;2024-02-26T07:19:36;96394.75;;;5.34;79.74
27712;BME280;2377;51.734;8.950;2024-02-26T07:22:03;96400.59;;;5.35;79.44
27712;BME280;2377;51.734;8.950;2024-02-26T07:24:33;96404.09;;;5.34;79.97
27712;BME280;2377;51.734;8.950;2024-02-26T07:27:00;96404.09;;;5.34;79.94
27712;BME280;2377;51.734;8.950;2024-02-26T07:29:27;96406.63;;;5.34;79.95
27712;BME280;2377;51.734;8.950;2024-02-26T07:31:56;96405.09;;;5.33;80.03
27712;BME280;2377;51.734;8.950;2024-02-26T07:34:23;96402.13;;;5.36;80.38
27712;BME280;2377;51.734;8.950;2024-02-26T07:36:55;96403.69;;;5.37;80.71
27712;BME280;2377;51.734;8.950;2024-02-26T07:39:22;96405.59;;;5.41;80.65
27712;BME280;2377;51.734;8.950;2024-02-26T07:41:49;96404.38;;;5.44;80.67
27712;BME280;2377;51.734;8.950;2024-02-26T07:44:18;96411.56;;;5.47;80.88
27712;BME280;2377;51.734;8.950;2024-02-26T07:46:48;96409.56;;;5.49;80.77
27712;BME280;2377;51.734;8.950;2024-02-26T07:49:17;96415.78;;;5.53;81.02
27712;BME280;2377;51.734;8.950;2024-02-26T07:51:46;96417.88;;;5.56;80.96
27712;BME280;2377;51.734;8.950;2024-02-26T07:54:14;96423.28;;;5.60;80.79
27712;BME280;2377;51.734;8.950;2024-02-26T07:56:42;96421.66;;;5.65;80.61
27712;BME280;2377;51.734;8.950;2024-02-26T07:59:09;96424.75;;;5.67;80.84
27712;BME280;2377;51.734;8.950;2024-02-26T08:01:36;96431.72;;;5.72;80.58
27712;BME280;2377;51.734;8.950;2024-02-26T08:04:04;96437.09;;;5.76;80.37
27712;BME280;2377;51.734;8.950;2024-02-26T08:06:33;96445.06;;;5.79;80.48
27712;BME280;2377;51.734;8.950;2024-02-26T08:09:00;96447.94;;;5.83;80.30
27712;BME280;2377;51.734;8.950;2024-02-26T08:11:27;96451.38;;;5.88;80.54
27712;BME280;2377;51.734;8.950;2024-02-26T08:13:56;96454.84;;;5.94;80.81
27712;BME280;2377;51.734;8.950;2024-02-26T08:16:24;96460.25;;;5.98;80.22
27712;BME280;2377;51.734;8.950;2024-02-26T08:18:51;96471.72;;;6.00;80.60
27712;BME280;2377;51.734;8.950;2024-02-26T08:21:19;96470.84;;;6.06;80.55
27712;BME280;2377;51.734;8.950;2024-02-26T08:23:48;96465.13;;;6.11;80.21
27712;BME280;2377;51.734;8.950;2024-02-26T08:26:15;96469.00;;;6.13;80.27
27712;BME280;2377;51.734;8.950;2024-02-26T08:28:42;96471.88;;;6.17;80.91
27712;BME280;2377;51.734;8.950;2024-02-26T08:31:10;96465.03;;;6.18;80.27
27712;BME280;2377;51.734;8.950;2024-02-26T08:33:38;96470.78;;;6.25;80.74
27712;BME280;2377;51.734;8.950;2024-02-26T08:36:06;96476.97;;;6.29;80.57
27712;BME280;2377;51.734;8.950;2024-02-26T08:38:33;96473.03;;;6.33;80.49
27712;BME280;2377;51.734;8.950;2024-02-26T08:41:05;96471.38;;;6.39;80.40
27712;BME280;2377;51.734;8.950;2024-02-26T08:43:32;96473.25;;;6.43;80.08
27712;BME280;2377;51.734;8.950;2024-02-26T08:46:01;96478.69;;;6.47;79.94
27712;BME280;2377;51.734;8.950;2024-02-26T08:48:28;96478.78;;;6.52;79.62
27712;BME280;2377;51.734;8.950;2024-02-26T08:50:56;96474.59;;;6.57;79.47
27712;BME280;2377;51.734;8.950;2024-02-26T08:53:24;96476.03;;;6.65;79.01
27712;BME280;2377;51.734;8.950;2024-02-26T08:55:52;96478.03;;;6.75;79.05
27712;BME280;2377;51.734;8.950;2024-02-26T08:58:21;96482.22;;;6.81;78.56
27712;BME280;2377;51.734;8.950;2024-02-26T09:00:50;96487.97;;;6.88;78.23
27712;BME280;2377;51.734;8.950;2024-02-26T09:03:19;96481.25;;;6.94;78.26
27712;BME280;2377;51.734;8.950;2024-02-26T09:05:46;96474.59;;;7.05;78.82
27712;BME280;2377;51.734;8.950;2024-02-26T09:08:13;96477.56;;;7.13;76.98
27712;BME280;2377;51.734;8.950;2024-02-26T09:10:41;96475.00;;;7.25;77.67
27712;BME280;2377;51.734;8.950;2024-02-26T09:13:08;96477.31;;;7.38;76.99
27712;BME280;2377;51.734;8.950;2024-02-26T09:15:37;96478.06;;;7.51;76.12
27712;BME280;2377;51.734;8.950;2024-02-26T09:18:05;96481.78;;;7.60;75.82
27712;BME280;2377;51.734;8.950;2024-02-26T09:20:37;96475.22;;;7.64;74.64
27712;BME280;2377;51.734;8.950;2024-02-26T09:23:04;96479.97;;;7.72;75.57
27712;BME280;2377;51.734;8.950;2024-02-26T09:25:32;96482.06;;;7.75;75.18
27712;BME280;2377;51.734;8.950;2024-02-26T09:28:00;96478.91;;;7.85;75.55
27712;BME280;2377;51.734;8.950;2024-02-26T09:30:28;96490.81;;;7.96;74.43
27712;BME280;2377;51.734;8.950;2024-02-26T09:32:56;96484.44;;;8.11;75.44
27712;BME280;2377;51.734;8.950;2024-02-26T09:35:24;96485.16;;;8.23;74.52
27712;BME280;2377;51.734;8.950;2024-02-26T09:37:52;96487.63;;;8.35;74.33
27712;BME280;2377;51.734;8.950;2024-02-26T09:40:19;96485.34;;;8.50;74.50
27712;BME280;2377;51.734;8.950;2024-02-26T09:42:55;96493.63;;;8.57;73.15
27712;BME280;2377;51.734;8.950;2024-02-26T09:45:28;96494.53;;;8.51;72.12
27712;BME280;2377;51.734;8.950;2024-02-26T09:47:57;96500.97;;;8.54;72.88
27712;BME280;2377;51.734;8.950;2024-02-26T09:50:24;96502.34;;;8.61;72.38
27712;BME280;2377;51.734;8.950;2024-02-26T09:52:54;96509.50;;;8.64;72.71
27712;BME280;2377;51.734;8.950;2024-02-26T09:55:23;96506.66;;;8.78;73.06
27712;BME280;2377;51.734;8.950;2024-02-26T09:57:51;96514.97;;;8.90;72.39
27712;BME280;2377;51.734;8.950;2024-02-26T10:00:21;96519.22;;;9.01;71.86
27712;BME280;2377;51.734;8.950;2024-02-26T10:02:49;96514.31;;;9.17;72.58
27712;BME280;2377;51.734;8.950;2024-02-26T10:05:21;96516.00;;;9.28;72.31
27712;BME280;2377;51.734;8.950;2024-02-26T10:07:51;96515.50;;;9.31;70.61
27712;BME280;2377;51.734;8.950;2024-02-26T10:10:19;96523.97;;;9.31;71.55
27712;BME280;2377;51.734;8.950;2024-02-26T10:12:49;96525.66;;;9.26;70.38
27712;BME280;2377;51.734;8.950;2024-02-26T10:15:17;96517.72;;;9.22;70.15
27712;BME280;2377;51.734;8.950;2024-02-26T10:17:44;96524.50;;;9.17;71.18
27712;BME280;2377;51.734;8.950;2024-02-26T10:20:16;96527.53;;;9.14;70.37
27712;BME280;2377;51.734;8.950;2024-02-26T10:22:46;96529.53;;;9.12;71.19
27712;BME280;2377;51.734;8.950;2024-02-26T10:25:14;96529.63;;;9.00;71.41
27712;BME280;2377;51.734;8.950;2024-02-26T10:27:42;96522.84;;;8.88;71.85
27712;BME280;2377;51.734;8.950;2024-02-26T10:30:22;96527.41;;;8.86;72.29
27712;BME280;2377;51.734;8.950;2024-02-26T10:32:52;96531.97;;;8.84;71.84
27712;BME280;2377;51.734;8.950;2024-02-26T10:35:19;96528.63;;;8.84;71.90
27712;BME280;2377;51.734;8.950;2024-02-26T10:37:50;96537.31;;;8.83;72.97
27712;BME280;2377;51.734;8.950;2024-02-26T10:40:18;96540.88;;;8.82;73.41
27712;BME280;2377;51.734;8.950;2024-02-26T10:42:45;96542.94;;;8.85;72.22
27712;BME280;2377;51.734;8.950;2024-02-26T10:45:13;96545.97;;;8.82;72.93
27712;BME280;2377;51.734;8.950;2024-02-26T10:47:41;96550.66;;;8.90;73.15
27712;BME280;2377;51.734;8.950;2024-02-26T10:50:09;96554.22;;;8.89;72.01
27712;BME280;2377;51.734;8.950;2024-02-26T10:52:37;96555.75;;;8.90;72.57
27712;BME280;2377;51.734;8.950;2024-02-26T10:55:07;96555.28;;;8.93;72.65
27712;BME280;2377;51.734;8.950;2024-02-26T10:57:39;96554.81;;;8.96;72.92
27712;BME280;2377;51.734;8.950;2024-02-26T11:00:14;96566.41;;;9.04;72.74
27712;BME280;2377;51.734;8.950;2024-02-26T11:02:44;96568.00;;;9.10;73.50
27712;BME280;2377;51.734;8.950;2024-02-26T11:05:12;96568.63;;;9.17;73.07
27712;BME280;2377;51.734;8.950;2024-02-26T11:07:41;96568.38;;;9.19;74.01
27712;BME280;2377;51.734;8.950;2024-02-26T11:10:11;96559.75;;;9.20;72.63
27712;BME280;2377;51.734;8.950;2024-02-26T11:12:41;96567.91;;;9.22;73.27
27712;BME280;2377;51.734;8.950;2024-02-26T11:15:09;96561.22;;;9.16;72.38
27712;BME280;2377;51.734;8.950;2024-02-26T11:17:38;96563.53;;;9.17;72.19
27712;BME280;2377;51.734;8.950;2024-02-26T11:20:11;96568.38;;;9.19;73.03
27712;BME280;2377;51.734;8.950;2024-02-26T11:22:40;96572.50;;;9.20;72.16
27712;BME280;2377;51.734;8.950;2024-02-26T11:25:08;96582.16;;;9.18;71.30
27712;BME280;2377;51.734;8.950;2024-02-26T11:27:45;96574.50;;;9.18;72.45
27712;BME280;2377;51.734;8.950;2024-02-26T11:30:16;96573.47;;;9.19;71.66
27712;BME280;2377;51.734;8.950;2024-02-26T11:32:44;96565.13;;;9.23;72.69
27712;BME280;2377;51.734;8.950;2024-02-26T11:35:14;96574.84;;;9.26;73.64
27712;BME280;2377;51.734;8.950;2024-02-26T11:37:53;96574.09;;;9.26;73.07
27712;BME280;2377;51.734;8.950;2024-02-26T11:40:20;96570.56;;;9.27;73.20
27712;BME280;2377;51.734;8.950;2024-02-26T11:42:49;96573.09;;;9.27;72.68
27712;BME280;2377;51.734;8.950;2024-02-26T11:45:49;96574.84;;;9.26;72.72
27712;BME280;2377;51.734;8.950;2024-02-26T11:48:21;96580.59;;;9.34;73.25
27712;BME280;2377;51.734;8.950;2024-02-26T11:50:51;96575.94;;;9.30;73.16
27712;BME280;2377;51.734;8.950;2024-02-26T11:53:27;96576.97;;;9.29;72.65
27712;BME280;2377;51.734;8.950;2024-02-26T11:56:24;96572.09;;;9.28;73.20
27712;BME280;2377;51.734;8.950;2024-02-26T11:59:01;96581.53;;;9.27;73.01
27712;BME280;2377;51.734;8.950;2024-02-26T12:01:43;96584.53;;;9.24;73.16
27712;BME280;2377;51.734;8.950;2024-02-26T12:04:16;96589.38;;;9.26;73.97
27712;BME280;2377;51.734;8.950;2024-02-26T12:06:50;96580.22;;;9.25;74.06
27712;BME280;2377;51.734;8.950;2024-02-26T12:09:37;96582.75;;;9.25;74.61
27712;BME280;2377;51.734;8.950;2024-02-26T12:12:07;96581.53;;;9.27;74.19
27712;BME280;2377;51.734;8.950;2024-02-26T12:14:50;96585.91;;;9.32;75.14
27712;BME280;2377;51.734;8.950;2024-02-26T12:17:21;96588.94;;;9.29;74.11
27712;BME280;2377;51.734;8.950;2024-02-26T12:19:47;96596.34;;;9.30;74.00
27712;BME280;2377;51.734;8.950;2024-02-26T12:22:20;96591.72;;;9.27;74.86
27712;BME280;2377;51.734;8.950;2024-02-26T12:24:50;96592.97;;;9.25;75.10
27712;BME280;2377;51.734;8.950;2024-02-26T12:27:25;96593.50;;;9.27;75.01
27712;BME280;2377;51.734;8.950;2024-02-26T12:29:53;96596.50;;;9.24;75.15
27712;BME280;2377;51.734;8.950;2024-02-26T12:32:21;96592.97;;;9.25;74.89
27712;BME280;2377;51.734;8.950;2024-02-26T12:34:50;96593.19;;;9.23;74.76
27712;BME280;2377;51.734;8.950;2024-02-26T12:37:18;96589.88;;;9.23;75.64
27712;BME280;2377;51.734;8.950;2024-02-26T12:39:46;96594.97;;;9.23;75.14
27712;BME280;2377;51.734;8.950;2024-02-26T12:42:14;96597.88;;;9.15;76.14
27712;BME280;2377;51.734;8.950;2024-02-26T12:44:45;96601.44;;;9.14;76.30
27712;BME280;2377;51.734;8.950;2024-02-26T12:47:13;96604.47;;;9.10;77.27
27712;BME280;2377;51.734;8.950;2024-02-26T12:49:42;96596.84;;;9.10;76.42
27712;BME280;2377;51.734;8.950;2024-02-26T12:52:11;96602.91;;;9.09;77.03
27712;BME280;2377;51.734;8.950;2024-02-26T12:54:38;96607.03;;;9.10;76.26
27712;BME280;2377;51.734;8.950;2024-02-26T12:57:09;96615.44;;;9.11;76.87
27712;BME280;2377;51.734;8.950;2024-02-26T12:59:37;96624.88;;;9.10;76.37
27712;BME280;2377;51.734;8.950;2024-02-26T13:02:05;96621.78;;;9.08;76.17
27712;BME280;2377;51.734;8.950;2024-02-26T13:04:34;96633.22;;;9.06;76.61
27712;BME280;2377;51.734;8.950;2024-02-26T13:07:04;96637.22;;;9.02;76.09
27712;BME280;2377;51.734;8.950;2024-02-26T13:09:33;96637.53;;;9.05;76.32
27712;BME280;2377;51.734;8.950;2024-02-26T13:12:05;96644.72;;;9.08;76.43
27712;BME280;2377;51.734;8.950;2024-02-26T13:14:33;96640.09;;;9.05;76.85
27712;BME280;2377;51.734;8.950;2024-02-26T13:17:01;96650.28;;;9.05;75.85
27712;BME280;2377;51.734;8.950;2024-02-26T13:19:29;96645.19;;;9.05;75.84
27712;BME280;2377;51.734;8.950;2024-02-26T13:22:04;96654.16;;;9.08;75.46
27712;BME280;2377;51.734;8.950;2024-02-26T13:24:32;96646.94;;;9.05;75.26
27712;BME280;2377;51.734;8.950;2024-02-26T13:27:00;96646.72;;;9.06;76.01
27712;BME280;2377;51.734;8.950;2024-02-26T13:29:29;96649.97;;;9.02;75.71